Time;durP1;ratioP1;P1;durP2;ratioP2;P2;SDS_P1;SDS_P2;PMS_P1;PMS_P2;Temp;Humidity;BMP_temperature;BMP_pressure;BME280_temperature;BME280_humidity;BME280_pressure;Samples;Min_cycle;Max_cycle;Signal;HPM_P1;HPM_P2
2022/08/10 00:02:20;;;;;;;5.10;3.33;;;;;;;16.35;78.12;102675.00;5135180;27;20037;-74
2022/08/10 00:04:46;;;;;;;4.65;2.88;;;;;;;16.33;78.15;102687.31;5135167;27;20118;-75
2022/08/10 00:07:11;;;;;;;4.57;3.15;;;;;;;16.21;78.22;102670.56;5135023;27;20020;-75
2022/08/10 00:09:36;;;;;;;6.97;3.33;;;;;;;16.19;78.38;102667.22;5135219;27;20076;-75
2022/08/10 00:12:02;;;;;;;6.00;3.35;;;;;;;16.16;77.84;102653.53;5134989;27;20030;-74
2022/08/10 00:14:27;;;;;;;4.40;2.92;;;;;;;16.16;77.84;102656.13;5134795;27;20023;-74
2022/08/10 00:16:53;;;;;;;7.38;3.30;;;;;;;16.27;78.02;102672.00;5134981;27;20390;-75
2022/08/10 00:19:18;;;;;;;6.10;3.63;;;;;;;16.25;77.71;102664.28;5134928;27;20056;-74
2022/08/10 00:21:44;;;;;;;5.72;3.13;;;;;;;16.24;77.45;102665.19;5134523;27;20031;-74
2022/08/10 00:24:10;;;;;;;6.75;3.28;;;;;;;16.25;77.56;102672.09;5133961;27;20038;-74
2022/08/10 00:26:35;;;;;;;6.47;3.15;;;;;;;16.15;77.54;102660.50;5134818;27;20023;-75
2022/08/10 00:29:00;;;;;;;6.88;3.58;;;;;;;16.13;77.50;102638.91;5134562;27;20461;-75
2022/08/10 00:31:26;;;;;;;5.85;3.15;;;;;;;16.20;77.61;102665.44;5134679;27;20027;-76
2022/08/10 00:33:51;;;;;;;6.20;3.00;;;;;;;16.13;77.92;102654.56;5134742;27;20030;-76
2022/08/10 00:36:16;;;;;;;5.03;3.33;;;;;;;16.06;78.10;102658.44;5134394;27;20077;-76
2022/08/10 00:38:42;;;;;;;5.30;3.20;;;;;;;16.00;78.19;102645.75;5134506;27;20106;-76
2022/08/10 00:41:07;;;;;;;7.05;3.28;;;;;;;15.89;78.52;102630.72;5134687;27;20474;-75
2022/08/10 00:43:33;;;;;;;7.78;3.42;;;;;;;16.02;78.29;102656.91;5134481;27;20468;-77
2022/08/10 00:45:58;;;;;;;6.28;3.58;;;;;;;16.01;78.46;102655.22;5134408;27;20023;-75
2022/08/10 00:48:23;;;;;;;6.47;3.42;;;;;;;15.94;78.79;102649.53;5134631;27;20546;-77
2022/08/10 00:50:49;;;;;;;5.95;3.58;;;;;;;15.98;78.67;102648.44;5134517;27;20027;-76
2022/08/10 00:53:14;;;;;;;4.53;3.17;;;;;;;15.87;79.10;102647.38;5134105;27;20406;-75
2022/08/10 00:55:40;;;;;;;6.25;3.38;;;;;;;15.84;78.86;102651.00;5134277;27;20038;-76
2022/08/10 00:58:07;;;;;;;5.43;3.25;;;;;;;15.82;79.24;102654.59;5134289;27;20030;-76
2022/08/10 01:00:32;;;;;;;5.78;3.45;;;;;;;15.76;79.47;102648.81;5134799;27;20027;-76
2022/08/10 01:02:57;;;;;;;6.25;3.00;;;;;;;15.61;79.85;102635.78;5134291;27;20535;-76
2022/08/10 01:05:23;;;;;;;6.57;3.75;;;;;;;15.71;79.88;102652.59;5134139;27;20076;-76
2022/08/10 01:07:55;;;;;;;6.53;3.10;;;;;;;15.67;79.89;102645.88;5133804;27;20035;-76
2022/08/10 01:10:33;;;;;;;5.25;3.40;;;;;;;15.66;79.78;102649.41;5133955;27;20034;-75
2022/08/10 01:13:16;;;;;;;5.35;3.33;;;;;;;15.60;80.39;102647.97;5133914;27;20482;-76
2022/08/10 01:15:51;;;;;;;5.43;3.10;;;;;;;15.55;80.58;102646.53;5133933;27;20417;-76
2022/08/10 01:18:52;;;;;;;5.50;3.53;;;;;;;15.49;80.54;102655.50;5133940;27;20122;-76
2022/08/10 01:21:46;;;;;;;4.85;3.40;;;;;;;15.42;80.53;102644.56;5132324;27;20031;-75
2022/08/10 01:24:11;;;;;;;7.35;4.00;;;;;;;15.41;81.26;102644.66;5133735;27;20019;-75
2022/08/10 01:27:02;;;;;;;5.53;3.10;;;;;;;15.24;80.68;102619.56;5133833;27;20478;-75
2022/08/10 01:29:49;;;;;;;6.35;3.42;;;;;;;15.29;81.13;102646.16;5133655;27;20027;-75
2022/08/10 01:32:23;;;;;;;6.50;4.05;;;;;;;15.12;81.65;102604.59;5133631;27;20191;-76
2022/08/10 01:34:52;;;;;;;6.63;4.20;;;;;;;15.26;81.82;102630.72;5132961;27;20047;-76
2022/08/10 01:37:23;;;;;;;8.43;4.35;;;;;;;15.31;81.86;102640.88;5133374;27;20445;-76
2022/08/10 01:39:55;;;;;;;5.47;3.88;;;;;;;15.32;81.94;102640.78;5133487;28;20023;-77
2022/08/10 01:42:22;;;;;;;6.90;4.38;;;;;;;15.30;82.40;102632.22;5133592;27;20023;-76
2022/08/10 01:45:01;;;;;;;6.63;3.97;;;;;;;15.22;81.86;102639.59;5133519;28;20284;-77
2022/08/10 01:50:28;;;;;;;7.13;4.32;;;;;;;15.25;82.58;102641.22;5133557;27;20489;-75
2022/08/10 01:53:15;;;;;;;6.78;4.32;;;;;;;15.24;82.65;102639.53;5133277;28;20027;-76
2022/08/10 01:55:42;;;;;;;7.57;4.75;;;;;;;15.19;82.73;102637.19;5133336;27;20023;-76
2022/08/10 01:58:10;;;;;;;8.55;5.00;;;;;;;15.17;82.81;102636.44;5133504;28;20023;-76
2022/08/10 02:00:40;;;;;;;9.60;4.43;;;;;;;15.11;83.06;102641.94;5133637;28;20043;-76
2022/08/10 02:03:09;;;;;;;8.15;5.07;;;;;;;15.07;83.21;102638.69;5133465;28;20425;-76
2022/08/10 02:05:38;;;;;;;9.07;4.82;;;;;;;15.05;83.27;102637.09;5133416;28;20572;-76
2022/08/10 02:08:07;;;;;;;8.40;5.07;;;;;;;15.10;83.20;102641.09;5133164;27;20035;-76
2022/08/10 02:10:34;;;;;;;7.82;5.18;;;;;;;14.92;83.52;102618.66;5133324;28;20051;-76
2022/08/10 02:13:01;;;;;;;7.05;4.63;;;;;;;15.00;83.64;102644.28;5133606;28;20038;-76
2022/08/10 02:15:32;;;;;;;10.02;5.32;;;;;;;15.01;83.63;102639.00;5114773;28;20039;-76
2022/08/10 02:18:00;;;;;;;7.90;4.90;;;;;;;14.88;83.97;102619.75;5133177;28;20072;-76
2022/08/10 02:20:32;;;;;;;8.48;5.15;;;;;;;14.89;84.13;102632.69;5133300;28;20516;-76
2022/08/10 02:23:03;;;;;;;9.40;5.20;;;;;;;14.73;84.56;102616.19;5133059;27;20023;-77
2022/08/10 02:25:30;;;;;;;8.13;5.18;;;;;;;14.73;84.58;102612.75;5133289;28;20466;-75
2022/08/10 02:27:57;;;;;;;10.43;5.30;;;;;;;14.75;84.74;102632.56;5133399;27;20030;-76
2022/08/10 02:30:22;;;;;;;8.57;5.00;;;;;;;14.64;85.00;102617.50;5133161;28;20023;-76
2022/08/10 02:32:50;;;;;;;8.27;5.50;;;;;;;14.59;85.20;102619.50;5132897;27;20485;-76
2022/08/10 02:35:16;;;;;;;8.55;5.28;;;;;;;14.57;85.27;102615.31;5132822;27;20091;-76
2022/08/10 02:37:47;;;;;;;11.32;6.25;;;;;;;14.72;85.72;102639.66;5132908;27;20023;-75
2022/08/10 02:40:13;;;;;;;8.82;5.68;;;;;;;14.61;85.59;102622.03;5133031;28;20031;-76
2022/08/10 02:43:13;;;;;;;9.05;5.47;;;;;;;14.54;84.80;102621.47;5133417;28;20023;-76
2022/08/10 02:45:47;;;;;;;9.10;6.20;;;;;;;14.57;85.54;102638.72;5132977;27;20055;-76
2022/08/10 02:48:20;;;;;;;8.73;5.63;;;;;;;14.43;85.87;102626.34;5137017;27;20386;-75
2022/08/10 02:50:54;;;;;;;9.43;6.00;;;;;;;14.48;86.09;102627.00;5136956;27;20378;-76
2022/08/10 02:53:30;;;;;;;7.90;5.95;;;;;;;14.41;86.26;102629.97;5136657;27;20030;-76
2022/08/10 02:56:18;;;;;;;9.45;5.93;;;;;;;14.31;86.44;102607.03;5136558;27;20458;-76
2022/08/10 02:58:49;;;;;;;10.15;6.20;;;;;;;14.38;86.98;102627.53;5136314;27;20055;-76
2022/08/10 03:01:20;;;;;;;10.55;5.95;;;;;;;14.35;86.75;102623.31;5136517;27;20015;-75
2022/08/10 03:04:05;;;;;;;9.25;5.97;;;;;;;14.28;87.03;102620.19;5136371;27;20386;-76
2022/08/10 03:06:38;;;;;;;8.75;5.30;;;;;;;14.18;87.30;102611.16;5136273;27;20035;-75
2022/08/10 03:09:06;;;;;;;8.85;5.63;;;;;;;14.25;87.57;102609.09;5136128;27;20020;-76
2022/08/10 03:11:34;;;;;;;10.07;6.20;;;;;;;14.14;88.36;102601.81;5136247;27;20026;-76
2022/08/10 03:14:01;;;;;;;9.00;6.70;;;;;;;14.17;88.44;102598.25;5136279;27;20071;-76
2022/08/10 03:16:28;;;;;;;9.75;5.63;;;;;;;14.14;88.17;102590.59;5136178;27;20028;-75
2022/08/10 03:18:55;;;;;;;10.75;5.85;;;;;;;14.02;88.45;102571.28;5136202;27;20030;-76
2022/08/10 03:21:23;;;;;;;9.07;6.30;;;;;;;14.06;88.74;102594.44;5136123;27;20019;-76
2022/08/10 03:23:50;;;;;;;10.25;6.47;;;;;;;14.09;88.62;102590.84;5136426;27;20104;-76
2022/08/10 03:26:16;;;;;;;8.90;5.90;;;;;;;14.17;88.91;102606.91;5135926;27;20067;-75
2022/08/10 03:28:42;;;;;;;9.55;6.20;;;;;;;14.09;88.91;102590.84;5135632;27;20015;-76
2022/08/10 03:31:08;;;;;;;11.40;6.57;;;;;;;14.10;89.34;102600.31;5136050;27;20030;-76
2022/08/10 03:33:37;;;;;;;9.35;6.35;;;;;;;14.07;89.08;102601.31;5135808;27;20412;-76
2022/08/10 03:36:03;;;;;;;9.43;5.85;;;;;;;14.03;88.98;102599.75;5135555;27;20043;-76
2022/08/10 03:38:28;;;;;;;10.48;6.82;;;;;;;13.94;89.20;102586.38;5135757;27;20023;-77
2022/08/10 03:40:57;;;;;;;8.70;6.22;;;;;;;13.90;89.26;102588.31;5135600;27;20100;-77
2022/08/10 03:43:24;;;;;;;11.95;6.90;;;;;;;13.97;89.90;102600.09;5135699;27;20042;-76
2022/08/10 03:45:56;;;;;;;11.68;5.97;;;;;;;13.81;89.43;102587.91;5135681;27;20447;-76
2022/08/10 03:48:25;;;;;;;11.00;6.13;;;;;;;13.84;90.31;102592.94;5135634;27;20065;-76
2022/08/10 03:50:51;;;;;;;9.00;6.53;;;;;;;13.82;90.30;102600.81;5135423;27;20493;-76
2022/08/10 03:53:17;;;;;;;10.50;6.00;;;;;;;13.84;90.50;102603.34;5135587;27;20027;-77
2022/08/10 03:55:44;;;;;;;9.82;6.43;;;;;;;13.85;90.09;102605.84;5135211;27;20523;-76
2022/08/10 03:58:10;;;;;;;10.35;6.80;;;;;;;13.84;91.05;102609.38;5135250;27;20043;-75
2022/08/10 04:00:36;;;;;;;10.73;6.68;;;;;;;13.82;90.69;102613.81;5135142;27;20031;-76
2022/08/10 04:03:05;;;;;;;9.23;6.38;;;;;;;13.82;90.81;102616.41;5135275;27;20031;-76
2022/08/10 04:05:34;;;;;;;8.38;6.15;;;;;;;13.73;90.56;102607.28;5134970;27;20026;-76
2022/08/10 04:08:00;;;;;;;12.82;6.65;;;;;;;13.72;90.98;102609.97;5135258;27;20074;-76
2022/08/10 04:10:26;;;;;;;8.95;6.45;;;;;;;13.67;91.03;102605.00;5134927;27;20046;-76
2022/08/10 04:12:52;;;;;;;9.52;6.93;;;;;;;13.64;91.35;102593.91;5134883;27;20019;-77
2022/08/10 04:15:17;;;;;;;13.90;6.10;;;;;;;13.42;91.05;102566.38;5134883;27;20072;-75
2022/08/10 04:17:42;;;;;;;10.73;7.03;;;;;;;13.64;91.98;102586.13;5135072;27;20102;-75
2022/08/10 04:20:44;;;;;;;10.13;6.70;;;;;;;13.74;91.34;102611.56;5134907;27;20107;-75
2022/08/10 04:23:15;;;;;;;;;;;;;;;13.75;89.74;102613.25;5135467;27;20027;-76
2022/08/10 04:25:40;;;;;;;9.63;6.78;;;;;;;13.72;91.78;102607.38;5134735;27;19915;-75
2022/08/10 04:28:07;;;;;;;11.57;7.03;;;;;;;13.71;92.28;102614.31;5134764;27;20019;-76
2022/08/10 04:30:35;;;;;;;13.15;7.13;;;;;;;13.76;91.76;102612.34;5134522;27;20076;-76
2022/08/10 04:33:02;;;;;;;9.95;6.72;;;;;;;13.75;91.98;102618.44;5135274;27;20025;-76
2022/08/10 04:35:29;;;;;;;12.93;6.88;;;;;;;13.73;91.69;102609.03;5134633;27;20043;-75
2022/08/10 04:37:55;;;;;;;12.65;7.47;;;;;;;13.78;92.04;102614.88;5134501;27;20106;-75
2022/08/10 04:40:21;;;;;;;10.80;6.45;;;;;;;13.71;91.50;102614.31;5134411;27;20051;-77
2022/08/10 04:42:47;;;;;;;8.70;6.28;;;;;;;13.66;91.78;102595.50;5134534;27;20374;-77
2022/08/10 04:45:14;;;;;;;13.50;7.18;;;;;;;13.76;92.31;102599.38;5134245;27;20027;-76
2022/08/10 04:47:40;;;;;;;10.05;6.65;;;;;;;13.72;91.82;102597.81;5134486;27;20031;-76
2022/08/10 04:50:06;;;;;;;11.07;6.90;;;;;;;13.86;92.29;102611.88;5134567;27;20017;-76
2022/08/10 04:52:31;;;;;;;10.02;6.93;;;;;;;13.81;92.42;102585.31;5134175;27;20031;-77
2022/08/10 04:54:57;;;;;;;13.45;6.65;;;;;;;13.98;92.36;102604.34;5134059;27;20047;-76
2022/08/10 04:57:22;;;;;;;11.07;7.07;;;;;;;14.04;92.23;102611.00;5134043;27;20481;-76
2022/08/10 04:59:47;;;;;;;10.15;7.18;;;;;;;14.07;92.40;102600.47;5134281;27;20102;-76
2022/08/10 05:02:13;;;;;;;11.07;7.50;;;;;;;14.02;92.33;102586.84;5133892;27;20030;-76
2022/08/10 05:04:39;;;;;;;11.30;7.13;;;;;;;14.20;91.76;102600.69;5134382;27;20023;-77
2022/08/10 05:07:09;;;;;;;9.70;6.90;;;;;;;14.31;91.63;102607.03;5133862;27;20136;-75
2022/08/10 05:09:35;;;;;;;10.32;7.43;;;;;;;14.30;91.27;102587.16;5133387;27;20023;-76
2022/08/10 05:12:01;;;;;;;12.95;6.88;;;;;;;14.62;90.99;102595.09;5133695;27;20050;-80
2022/08/10 05:14:27;;;;;;;9.30;4.70;;;;;;;15.16;90.99;102606.13;5133833;27;20467;-82
2022/08/10 05:16:55;;;;;;;10.35;5.15;;;;;;;15.36;88.84;102590.25;5133810;27;20035;-76
2022/08/10 05:19:20;;;;;;;13.25;5.82;;;;;;;15.41;86.73;102567.41;5134072;27;20043;-79
2022/08/10 05:21:46;;;;;;;8.43;5.45;;;;;;;15.91;85.46;102607.19;5133993;27;20103;-82
2022/08/10 05:24:11;;;;;;;9.18;5.68;;;;;;;16.19;84.16;102606.44;5133965;27;20175;-80
2022/08/10 05:26:36;;;;;;;14.70;7.13;;;;;;;16.11;83.40;102612.06;5133442;27;20092;-81
2022/08/10 05:29:02;;;;;;;8.52;5.32;;;;;;;16.31;83.84;102611.75;5133676;27;20027;-78
2022/08/10 05:31:27;;;;;;;9.32;6.18;;;;;;;16.16;82.25;102586.59;5133456;27;20024;-85
2022/08/10 05:33:53;;;;;;;11.57;6.75;;;;;;;16.18;82.57;102616.00;5133392;27;20476;-79
2022/08/10 05:36:19;;;;;;;10.23;6.32;;;;;;;16.02;82.87;102594.38;5133447;27;20401;-82
2022/08/10 05:38:45;;;;;;;10.82;7.13;;;;;;;16.10;83.14;102599.13;5133570;27;20047;-76
2022/08/10 05:41:12;;;;;;;9.27;5.93;;;;;;;16.20;83.06;102621.97;5133368;28;20027;-82
2022/08/10 05:43:38;;;;;;;11.10;7.15;;;;;;;16.17;82.92;102626.53;5133652;27;20367;-76
2022/08/10 05:46:03;;;;;;;8.40;5.75;;;;;;;16.64;82.19;102597.66;5133420;27;20094;-76
2022/08/10 05:48:28;;;;;;;10.32;5.80;;;;;;;18.37;76.96;102616.19;5133452;27;20033;-79
2022/08/10 05:50:54;;;;;;;7.90;5.45;;;;;;;19.69;70.04;102619.16;5133771;27;20027;-79
2022/08/10 05:53:20;;;;;;;9.63;5.00;;;;;;;21.02;65.34;102611.63;5133660;28;20102;-78
2022/08/10 05:55:45;;;;;;;10.45;5.75;;;;;;;22.38;60.34;102612.81;5133383;27;20033;-79
2022/08/10 05:58:10;;;;;;;9.45;5.90;;;;;;;22.83;57.83;102560.63;5133486;28;20031;-77
2022/08/10 06:00:39;;;;;;;10.00;5.45;;;;;;;23.33;56.00;102615.97;5133591;28;20042;-77
2022/08/10 06:03:07;;;;;;;8.07;5.40;;;;;;;23.95;54.21;102614.75;5133127;27;20016;-78
2022/08/10 06:05:38;;;;;;;7.65;5.30;;;;;;;23.65;54.09;102607.84;5133649;28;20080;-76
2022/08/10 06:08:10;;;;;;;8.18;5.10;;;;;;;23.65;54.32;102615.75;5133460;28;20033;-81
2022/08/10 06:10:37;;;;;;;7.78;5.53;;;;;;;23.33;54.23;102615.97;5133355;28;20033;-78
2022/08/10 06:16:08;;;;;;;8.07;5.22;;;;;;;24.65;51.03;102613.47;5049867;28;20396;-76
2022/08/10 06:18:35;;;;;;;8.18;5.35;;;;;;;24.82;50.52;102607.44;5049997;28;20048;-78
2022/08/10 06:21:01;;;;;;;9.35;5.57;;;;;;;25.49;48.66;102615.94;5051022;28;20029;-77
2022/08/10 06:23:28;;;;;;;9.18;5.35;;;;;;;25.70;48.20;102615.66;5053979;28;20037;-79
2022/08/10 06:25:54;;;;;;;9.27;5.57;;;;;;;25.54;47.92;102607.53;5053751;28;20123;-77
2022/08/10 06:28:21;;;;;;;8.13;5.60;;;;;;;25.68;47.48;102613.13;5053505;28;20036;-76
2022/08/10 06:30:50;;;;;;;8.02;5.05;;;;;;;25.73;46.99;102602.94;5053357;28;20037;-77
2022/08/10 06:33:18;;;;;;;7.18;5.30;;;;;;;25.87;47.05;102603.41;5053680;28;20036;-78
2022/08/10 06:35:45;;;;;;;10.63;5.47;;;;;;;26.08;46.81;102619.75;5064092;28;20041;-74
2022/08/10 06:38:12;;;;;;;8.68;5.25;;;;;;;26.31;46.14;102612.13;5073714;28;20064;-81
2022/08/10 06:40:42;;;;;;;10.07;5.80;;;;;;;25.64;47.14;102584.47;5073515;28;20032;-81
2022/08/10 06:43:12;;;;;;;10.63;5.45;;;;;;;25.76;46.93;102614.19;5073189;28;20036;-81
2022/08/10 06:45:44;;;;;;;7.32;4.60;;;;;;;25.86;47.18;102599.91;5073595;28;20032;-75
2022/08/10 06:48:25;;;;;;;7.13;4.90;;;;;;;26.33;46.93;102606.66;5073658;28;20545;-79
2022/08/10 06:50:58;;;;;;;7.00;3.90;;;;;;;25.97;46.66;102582.97;5125900;27;20034;-79
2022/08/10 06:53:29;;;;;;;8.63;5.30;;;;;;;26.61;46.22;102616.13;5118282;27;20035;-79
2022/08/10 06:56:01;;;;;;;7.68;5.07;;;;;;;26.96;45.73;102599.19;5136723;27;20023;-80
2022/08/10 06:58:38;;;;;;;6.70;4.90;;;;;;;27.63;44.53;102569.94;5136373;27;20031;-80
2022/08/10 07:01:08;;;;;;;9.25;6.05;;;;;;;27.75;42.32;102597.03;5136637;27;20537;-79
2022/08/10 07:03:38;;;;;;;8.63;5.35;;;;;;;27.51;43.47;102616.38;5136536;27;20019;-81
2022/08/10 07:06:06;;;;;;;9.48;5.10;;;;;;;28.05;42.44;102611.41;5136412;27;20789;-80
2022/08/10 07:08:32;;;;;;;7.15;3.83;;;;;;;28.20;41.98;102613.19;5136673;27;20064;-81
2022/08/10 07:11:04;;;;;;;8.38;5.50;;;;;;;28.00;41.22;102618.06;5136375;27;20020;-82
2022/08/10 07:13:33;;;;;;;8.23;5.18;;;;;;;27.02;43.36;102573.84;5136081;27;20090;-82
2022/08/10 07:16:00;;;;;;;8.73;5.63;;;;;;;27.58;42.40;102628.00;5117719;27;20015;-85
2022/08/10 07:18:35;;;;;;;9.35;5.75;;;;;;;27.92;42.22;102623.38;5136200;27;20027;-84
2022/08/10 07:21:03;;;;;;;7.10;4.82;;;;;;;27.61;42.40;102630.31;5136157;27;20057;-81
2022/08/10 07:23:29;;;;;;;10.55;5.75;;;;;;;28.36;41.19;102617.69;5136333;27;20015;-81
2022/08/10 07:25:57;;;;;;;10.40;5.82;;;;;;;29.05;39.41;102624.06;5136139;27;20059;-80
2022/08/10 07:28:23;;;;;;;9.60;5.63;;;;;;;28.02;40.97;102625.84;5135947;27;20023;-81
2022/08/10 07:30:50;;;;;;;8.00;5.82;;;;;;;26.14;44.37;102632.38;5135992;27;20526;-81
2022/08/10 07:33:18;;;;;;;10.27;5.55;;;;;;;24.59;48.57;102590.31;5135395;27;20015;-83
2022/08/10 07:35:46;;;;;;;10.20;5.68;;;;;;;23.90;50.66;102632.81;5135848;27;20035;-82
2022/08/10 07:38:21;;;;;;;9.10;6.13;;;;;;;23.11;51.50;102624.94;5136070;27;20438;-81
2022/08/10 07:40:56;;;;;;;9.52;6.40;;;;;;;22.52;54.49;102629.13;5135876;27;20023;-84
2022/08/10 07:43:24;;;;;;;8.75;6.18;;;;;;;22.01;54.53;102623.78;5135703;27;20034;-81
2022/08/10 07:45:50;;;;;;;9.68;5.80;;;;;;;21.77;57.53;102627.47;5135666;27;20027;-83
2022/08/10 07:48:21;;;;;;;9.40;5.47;;;;;;;21.40;57.09;102600.72;5135780;27;20023;-81
2022/08/10 07:50:50;;;;;;;9.68;6.10;;;;;;;21.33;57.51;102607.41;5135740;27;20030;-84
2022/08/10 07:53:20;;;;;;;8.65;6.15;;;;;;;21.12;58.08;102582.84;5135511;27;20020;-82
2022/08/10 07:55:48;;;;;;;9.75;6.07;;;;;;;21.14;58.30;102584.41;5135593;27;20485;-77
2022/08/10 07:58:16;;;;;;;10.85;5.35;;;;;;;21.52;58.97;102635.69;5134324;27;20375;-77
2022/08/10 08:00:44;;;;;;;10.45;5.93;;;;;;;21.51;58.60;102622.66;5136059;27;20106;-76
2022/08/10 08:03:11;;;;;;;9.32;5.47;;;;;;;21.52;57.86;102627.81;5136007;27;20027;-75
2022/08/10 08:05:38;;;;;;;10.05;5.97;;;;;;;21.50;57.35;102634.16;5135307;27;20466;-75
2022/08/10 08:08:06;;;;;;;9.50;5.28;;;;;;;21.43;57.23;102626.78;5135460;27;20027;-76
2022/08/10 08:10:32;;;;;;;9.63;4.93;;;;;;;21.56;57.28;102628.41;5135358;27;20019;-75
2022/08/10 08:13:00;;;;;;;8.93;4.95;;;;;;;21.62;56.99;102630.50;5135036;27;20110;-76
2022/08/10 08:15:26;;;;;;;7.07;4.93;;;;;;;21.73;57.45;102625.25;5134948;27;20102;-75
2022/08/10 08:17:54;;;;;;;9.48;5.78;;;;;;;21.61;57.98;102594.66;5134891;27;20027;-76
2022/08/10 08:20:21;;;;;;;9.48;5.65;;;;;;;21.74;57.84;102608.50;5135008;27;20029;-83
2022/08/10 08:22:48;;;;;;;9.48;5.05;;;;;;;21.97;58.32;102633.72;5134756;27;20114;-76
2022/08/10 08:25:15;;;;;;;12.25;5.47;;;;;;;21.99;57.35;102631.78;5116488;27;20436;-75
2022/08/10 08:27:43;;;;;;;9.13;4.93;;;;;;;21.97;57.93;102614.47;5134671;27;20027;-75
2022/08/10 08:30:09;;;;;;;7.45;4.80;;;;;;;22.20;57.22;102623.09;5134418;27;20023;-76
2022/08/10 08:32:37;;;;;;;11.20;4.88;;;;;;;22.12;56.64;102615.00;5134814;27;20046;-76
2022/08/10 08:35:08;;;;;;;8.80;4.70;;;;;;;22.24;56.70;102628.00;5134356;27;20841;-76
2022/08/10 08:37:38;;;;;;;13.65;5.43;;;;;;;22.23;53.49;102622.88;5134415;27;20119;-76
2022/08/10 08:40:12;;;;;;;7.50;4.43;;;;;;;22.26;52.89;102617.34;5134550;27;20035;-76
2022/08/10 08:43:03;;;;;;;10.13;4.60;;;;;;;22.37;54.05;102619.06;5134396;27;20076;-75
2022/08/10 08:45:38;;;;;;;;;;;;;;;22.45;54.38;102620.06;5134454;27;20035;-78
2022/08/10 08:48:18;;;;;;;6.80;3.75;;;;;;;22.63;54.01;102627.38;5134529;27;20290;-76
2022/08/10 08:50:57;;;;;;;10.88;4.07;;;;;;;22.70;53.91;102602.16;5134464;27;20023;-76
2022/08/10 08:53:47;;;;;;;6.90;3.83;;;;;;;22.92;52.93;102624.91;5134362;27;20051;-78
2022/08/10 08:56:50;;;;;;;7.97;4.90;;;;;;;22.93;52.79;102619.47;5134437;27;20390;-77
2022/08/10 08:59:44;;;;;;;7.00;3.97;;;;;;;22.94;52.83;102615.06;5134117;27;20393;-77
2022/08/10 09:02:43;;;;;;;8.57;4.05;;;;;;;23.07;53.01;102620.91;5134262;27;20023;-76
2022/08/10 09:05:33;;;;;;;6.80;4.45;;;;;;;23.05;51.84;102613.13;5133946;27;20100;-78
2022/08/10 09:08:21;;;;;;;7.75;4.50;;;;;;;23.13;49.99;102615.94;5133931;27;20363;-76
2022/08/10 09:11:05;;;;;;;6.30;4.07;;;;;;;23.33;50.68;102615.97;5134047;27;20027;-77
2022/08/10 09:14:12;;;;;;;7.68;4.05;;;;;;;23.45;50.85;102604.31;5133792;27;20027;-75
2022/08/10 09:16:54;;;;;;;7.18;3.42;;;;;;;23.39;50.40;102570.59;5133782;27;20027;-76
2022/08/10 09:19:42;;;;;;;;;;;;;;;23.65;49.83;102603.38;5133966;27;20043;-75
2022/08/10 09:22:16;;;;;;;7.65;3.85;;;;;;;23.60;49.53;102586.34;5133771;27;19937;-77
2022/08/10 09:25:15;;;;;;;6.90;3.85;;;;;;;23.77;49.65;102608.50;5133463;27;20066;-75
2022/08/10 09:27:44;;;;;;;7.30;3.92;;;;;;;23.83;48.16;102598.25;5133862;27;20038;-78
2022/08/10 09:30:15;;;;;;;7.25;3.92;;;;;;;23.84;48.95;102601.72;5133749;27;20027;-75
2022/08/10 09:32:47;;;;;;;7.38;3.70;;;;;;;23.75;48.92;102579.63;5133575;27;20058;-77
2022/08/10 09:35:34;;;;;;;5.93;4.00;;;;;;;23.87;49.56;102593.50;5137407;27;20091;-77
2022/08/10 09:38:17;;;;;;;9.85;4.18;;;;;;;23.74;48.36;102568.25;5154403;27;20077;-77
2022/08/10 09:41:26;;;;;;;7.05;3.97;;;;;;;23.96;48.72;102592.66;5154515;27;20023;-76
2022/08/10 09:44:25;;;;;;;7.97;4.18;;;;;;;24.13;48.69;102591.13;5154232;27;20026;-76
2022/08/10 09:46:50;;;;;;;8.13;3.75;;;;;;;24.28;46.97;102587.84;5154152;27;20027;-77
2022/08/10 09:49:35;;;;;;;6.28;3.90;;;;;;;24.36;46.09;102583.69;5154477;27;20026;-76
2022/08/10 09:52:16;;;;;;;9.55;4.05;;;;;;;24.49;46.23;102581.59;5154197;27;20027;-74
2022/08/10 09:54:51;;;;;;;6.70;3.90;;;;;;;24.59;44.69;102579.75;5154667;27;20019;-77
2022/08/10 09:57:38;;;;;;;7.95;3.45;;;;;;;24.76;45.95;102578.94;5158634;27;20492;-77
2022/08/10 10:00:11;;;;;;;6.70;3.80;;;;;;;24.80;44.89;102563.63;5157994;27;20023;-76
2022/08/10 10:03:14;;;;;;;9.05;3.72;;;;;;;24.91;45.29;102579.28;5158267;27;20381;-76
2022/08/10 10:06:03;;;;;;;8.32;3.92;;;;;;;24.89;45.49;102562.75;5158620;27;20109;-75
2022/08/10 10:08:42;;;;;;;8.20;4.00;;;;;;;24.90;44.77;102561.78;5158352;27;20038;-76
2022/08/10 10:11:35;;;;;;;6.60;3.47;;;;;;;24.85;45.81;102541.06;5158372;27;20065;-77
2022/08/10 10:14:34;;;;;;;7.00;3.95;;;;;;;25.07;45.29;102561.00;5157252;27;20101;-76
2022/08/10 10:17:10;;;;;;;11.30;3.92;;;;;;;25.17;45.65;102545.91;5158646;27;20465;-75
2022/08/10 10:20:00;;;;;;;9.40;3.83;;;;;;;25.32;44.69;102545.34;5158100;27;20022;-74
2022/08/10 10:22:44;;;;;;;6.97;3.90;;;;;;;25.34;43.68;102549.50;5157981;27;20109;-76
2022/08/10 10:25:40;;;;;;;9.57;4.28;;;;;;;25.36;42.95;102546.69;5157797;27;20027;-75
2022/08/10 10:28:29;;;;;;;8.68;3.75;;;;;;;25.41;43.21;102541.81;5157630;27;20023;-72
2022/08/10 10:31:05;;;;;;;9.20;3.92;;;;;;;25.41;41.72;102536.50;5157873;27;20106;-76
2022/08/10 10:33:47;;;;;;;8.13;4.05;;;;;;;25.48;43.66;102544.69;5157841;27;20105;-75
2022/08/10 10:36:15;;;;;;;7.18;3.80;;;;;;;25.49;41.33;102528.66;5157395;27;20118;-76
2022/08/10 10:38:42;;;;;;;6.93;3.88;;;;;;;25.56;41.46;102534.13;5157453;27;20110;-75
2022/08/10 10:41:34;;;;;;;10.00;4.90;;;;;;;25.53;42.38;102521.22;5157908;27;20068;-76
2022/08/10 10:44:20;;;;;;;9.32;4.20;;;;;;;25.57;42.04;102525.25;5157429;27;20022;-77
2022/08/10 10:47:23;;;;;;;8.88;4.00;;;;;;;25.64;42.53;102523.63;5157300;27;20109;-76
2022/08/10 10:49:53;;;;;;;6.72;3.80;;;;;;;25.70;40.73;102523.88;5157754;27;20057;-76
2022/08/10 10:52:48;;;;;;;7.93;4.18;;;;;;;25.84;42.03;102516.34;5157579;27;20049;-76
2022/08/10 10:55:22;;;;;;;8.80;4.45;;;;;;;25.97;41.25;102508.84;5157690;27;20061;-77
2022/08/10 10:58:11;;;;;;;7.32;3.97;;;;;;;25.98;41.10;102506.03;5157189;27;20386;-75
2022/08/10 11:01:02;;;;;;;7.80;4.20;;;;;;;26.05;41.06;102508.84;5157318;27;20023;-75
2022/08/10 11:03:45;;;;;;;7.88;3.95;;;;;;;26.20;40.25;102514.41;5157186;27;20385;-77
2022/08/10 11:06:24;;;;;;;9.73;4.00;;;;;;;26.19;39.31;102499.50;5156636;27;20022;-77
2022/08/10 11:08:57;;;;;;;6.90;4.22;;;;;;;26.16;39.23;102499.84;5157107;27;20123;-77
2022/08/10 11:11:33;;;;;;;9.00;4.25;;;;;;;26.15;39.59;102491.03;5157073;27;20031;-77
2022/08/10 11:14:12;;;;;;;9.50;4.05;;;;;;;26.20;40.98;102475.50;5156901;27;20123;-77
2022/08/10 11:16:43;;;;;;;7.22;3.75;;;;;;;26.37;40.22;102488.81;5156973;27;20030;-77
2022/08/10 11:19:35;;;;;;;6.82;4.13;;;;;;;26.24;40.32;102470.72;5157226;27;20027;-76
2022/08/10 11:22:27;;;;;;;11.55;4.10;;;;;;;26.33;40.00;102487.47;5157022;27;20030;-76
2022/08/10 11:25:18;;;;;;;6.30;3.63;;;;;;;26.37;37.95;102471.13;5156620;27;20050;-75
2022/08/10 11:27:59;;;;;;;6.18;4.13;;;;;;;26.58;36.28;102476.81;5156721;27;20026;-74
2022/08/10 11:30:32;;;;;;;10.10;4.00;;;;;;;26.69;36.77;102472.22;5156678;27;20030;-76
2022/08/10 11:33:13;;;;;;;8.52;3.88;;;;;;;26.75;36.40;102480.34;5156320;27;20026;-76
2022/08/10 11:35:50;;;;;;;;;;;;;;;26.74;37.75;102483.13;5135971;27;20035;-77
2022/08/10 11:38:29;;;;;;;7.15;3.90;;;;;;;26.78;36.42;102484.50;5135645;27;19911;-75
2022/08/10 11:41:06;;;;;;;9.95;4.15;;;;;;;26.44;35.64;102432.41;5135790;27;20098;-75
2022/08/10 11:43:37;;;;;;;5.78;3.88;;;;;;;26.81;36.88;102484.16;5135576;27;20023;-78
2022/08/10 11:46:05;;;;;;;;;;;;;;;26.86;37.50;102479.22;5135975;27;20027;-77
2022/08/10 11:48:41;;;;;;;9.73;3.97;;;;;;;26.82;35.99;102469.91;5135661;27;19955;-78
2022/08/10 11:51:17;;;;;;;7.35;4.43;;;;;;;26.80;35.62;102467.41;5135562;27;20470;-78
2022/08/10 11:53:59;;;;;;;9.20;4.25;;;;;;;26.92;36.67;102469.75;5116918;27;20453;-77
2022/08/10 11:56:32;;;;;;;7.35;3.95;;;;;;;27.01;37.13;102466.94;5135374;27;20023;-78